createdAt,value
2016-11-04T10:36:33.600Z,5892
2016-11-04T10:36:59.164Z,5792
2016-11-04T10:37:24.938Z,5668
2016-11-04T10:37:50.473Z,5656
2016-11-04T10:38:16.092Z,5596
2016-11-04T10:38:41.680Z,5040
2016-11-04T10:39:07.244Z,4088
2016-11-04T10:39:32.796Z,4428
2016-11-04T10:39:58.415Z,4364
2016-11-04T10:40:24.006Z,4816
2016-11-04T10:40:49.568Z,4476
2016-11-04T10:41:15.253Z,4336
2016-11-04T10:41:40.820Z,4448
2016-11-04T10:42:06.373Z,3860
2016-11-04T10:42:31.940Z,4156
2016-11-04T10:42:57.486Z,4800
2016-11-04T10:43:23.071Z,5424
2016-11-04T10:43:48.669Z,5592
2016-11-04T10:44:14.268Z,5572
2016-11-04T10:44:39.819Z,5608
2016-11-04T10:45:05.410Z,5560
2016-11-04T10:45:30.993Z,5596
2016-11-04T10:45:56.561Z,5564
2016-11-04T10:46:22.115Z,5352
2016-11-04T10:46:47.674Z,4256
2016-11-04T10:47:13.206Z,5108
2016-11-04T10:47:38.772Z,4864
2016-11-04T10:48:04.372Z,5236
2016-11-04T10:48:29.920Z,5320
2016-11-04T10:48:55.493Z,5316
2016-11-04T10:49:21.060Z,5252
2016-11-04T10:49:46.621Z,5184
2016-11-04T10:50:12.177Z,5116
2016-11-04T10:50:37.736Z,5072
2016-11-04T10:51:03.379Z,5080
2016-11-04T10:51:28.934Z,5216
2016-11-04T10:51:54.497Z,5124
2016-11-04T10:52:20.149Z,4860
2016-11-04T10:52:45.702Z,5020
2016-11-04T10:53:11.227Z,4996
2016-11-04T10:53:36.781Z,5144
2016-11-04T10:54:02.339Z,5060
2016-11-04T10:54:27.881Z,4888
2016-11-04T10:54:53.507Z,4836
2016-11-04T10:55:19.255Z,4732
2016-11-04T10:55:44.681Z,4984
2016-11-04T10:56:10.243Z,5228
2016-11-04T10:56:35.803Z,5168
2016-11-04T10:57:01.348Z,5464
2016-11-04T10:57:26.901Z,5672
2016-11-04T10:57:52.469Z,5664
2016-11-04T10:58:18.057Z,5800
2016-11-04T10:58:43.709Z,6088
2016-11-04T10:59:09.316Z,5888
2016-11-04T10:59:34.886Z,5572
2016-11-04T11:00:00.506Z,5704
2016-11-04T11:00:26.088Z,5756
2016-11-04T11:00:51.664Z,5760
2016-11-04T11:01:17.216Z,6372
2016-11-04T11:01:42.909Z,6520
2016-11-04T11:02:08.476Z,6324
2016-11-04T11:02:34.051Z,6688
2016-11-04T11:02:59.602Z,6760
2016-11-04T11:03:25.307Z,6900
2016-11-04T11:03:50.870Z,6760
2016-11-04T11:04:16.500Z,6704
2016-11-04T11:04:42.051Z,6684
2016-11-04T11:05:07.593Z,6712
2016-11-04T11:05:33.194Z,6484
2016-11-04T11:05:58.725Z,6296
2016-11-04T11:06:24.299Z,5956
2016-11-04T11:06:50.096Z,5828
2016-11-04T11:07:15.695Z,5888
2016-11-04T11:07:41.257Z,6040
2016-11-04T11:08:06.807Z,5860
2016-11-04T11:08:32.513Z,5756
2016-11-04T11:08:58.099Z,6012
2016-11-04T11:09:23.672Z,6360
2016-11-04T11:09:49.243Z,6412
2016-11-04T11:10:14.861Z,6368
2016-11-04T11:10:40.449Z,6392
2016-11-04T11:11:06.029Z,6600
2016-11-04T11:11:31.581Z,6832
2016-11-04T11:11:57.108Z,6988
2016-11-04T11:12:22.733Z,7188
2016-11-04T11:12:48.314Z,6888
2016-11-04T11:13:13.902Z,6580
2016-11-04T11:13:39.717Z,6664
2016-11-04T11:14:05.352Z,7160
2016-11-04T11:15:13.735Z,7360
2016-11-04T11:15:39.325Z,7404
2016-11-04T11:16:04.885Z,7336
2016-11-04T11:16:30.461Z,7596
2016-11-04T11:16:56.006Z,7444
2016-11-04T11:17:21.590Z,7256
2016-11-04T11:17:47.178Z,7324
2016-11-04T11:18:12.848Z,7836
2016-11-04T11:18:38.420Z,7600
2016-11-04T11:19:04.040Z,7620
2016-11-04T11:19:29.663Z,7164
2016-11-04T11:19:55.240Z,7208
2016-11-04T11:20:20.792Z,6760
2016-11-04T11:20:47.011Z,6948
2016-11-04T11:21:12.566Z,6864
2016-11-04T11:21:38.119Z,6504
2016-11-04T11:22:03.709Z,6256
2016-11-04T11:22:29.318Z,6824
2016-11-04T11:22:54.914Z,7768
2016-11-04T11:23:20.453Z,7476
2016-11-04T11:23:46.136Z,7220
2016-11-04T11:24:11.774Z,6900
2016-11-04T11:24:37.376Z,7472
2016-11-04T11:25:02.928Z,7380
2016-11-04T11:25:28.501Z,7528
2016-11-04T11:25:54.042Z,7784
2016-11-04T11:26:19.594Z,7796
2016-11-04T11:26:45.167Z,7628
2016-11-04T11:27:10.720Z,8056
2016-11-04T11:27:36.290Z,8108
2016-11-04T11:28:01.846Z,8372
2016-11-04T11:28:27.468Z,8676
2016-11-04T11:28:53.124Z,8776
2016-11-04T11:29:18.712Z,8444
2016-11-04T11:29:44.345Z,8076
2016-11-04T11:30:09.947Z,8324
2016-11-04T11:30:35.482Z,6492
2016-11-04T11:31:01.049Z,6676
2016-11-04T11:31:26.736Z,6656
2016-11-04T11:31:52.311Z,6552
2016-11-04T11:32:17.861Z,6320
2016-11-04T11:32:43.410Z,6208
2016-11-04T11:33:08.989Z,6236
2016-11-04T11:33:34.556Z,5728
2016-11-04T11:34:00.118Z,5336
2016-11-04T11:34:25.682Z,5380
2016-11-04T11:34:51.226Z,5340
2016-11-04T11:36:09.776Z,4976
2016-11-04T11:36:35.342Z,4752
2016-11-04T11:37:00.945Z,4716
2016-11-04T11:37:26.500Z,5100
2016-11-04T11:37:52.040Z,4924
2016-11-04T11:38:17.584Z,4920
2016-11-04T11:38:43.169Z,4972
2016-11-04T11:39:08.732Z,4848
2016-11-04T11:39:34.292Z,4956
2016-11-04T11:39:59.857Z,5580
2016-11-04T11:40:25.404Z,5036
2016-11-04T11:40:50.969Z,4636
2016-11-04T11:41:16.534Z,4604
2016-11-04T11:41:42.106Z,4836
2016-11-04T11:42:07.651Z,4716
2016-11-04T11:42:33.220Z,4600
2016-11-04T11:42:58.769Z,4600
2016-11-04T11:43:24.351Z,4652
2016-11-04T11:43:49.910Z,4692
2016-11-04T11:44:15.470Z,4476
2016-11-04T11:44:41.015Z,4500
2016-11-04T11:45:06.561Z,4340
2016-11-04T11:45:32.150Z,4416
2016-11-04T11:45:57.688Z,4544
2016-11-04T11:46:23.280Z,4628
2016-11-04T11:46:48.872Z,4716
2016-11-04T11:47:14.431Z,4740
2016-11-04T11:47:39.993Z,4992
2016-11-04T11:48:05.588Z,5248
2016-11-04T11:48:31.211Z,5680
2016-11-04T11:48:56.749Z,6120
2016-11-04T11:49:22.326Z,6612
2016-11-04T11:49:47.878Z,6852
2016-11-04T11:50:13.433Z,7208
2016-11-04T11:50:39.036Z,6516
2016-11-04T11:51:04.708Z,7016
2016-11-04T11:51:30.384Z,7440
2016-11-04T11:51:55.938Z,8032
2016-11-04T11:52:21.612Z,8212
2016-11-04T11:52:47.423Z,8512
2016-11-04T11:53:13.099Z,8744
2016-11-04T11:53:38.555Z,8928
2016-11-04T11:54:04.131Z,9024
2016-11-04T11:54:29.817Z,9428
2016-11-04T11:54:55.423Z,9020
2016-11-04T11:55:21.104Z,9852
2016-11-04T11:55:46.667Z,8940
2016-11-04T11:56:12.203Z,9168
2016-11-04T11:56:37.749Z,8176
2016-11-04T11:57:03.308Z,7736
2016-11-04T11:57:28.889Z,7500
2016-11-04T11:57:54.446Z,6756
2016-11-04T11:58:20.168Z,6084
2016-11-04T11:58:45.877Z,5712
2016-11-04T11:59:11.623Z,5076
2016-11-04T11:59:37.243Z,5232
2016-11-04T12:00:02.976Z,4896
2016-11-04T12:00:28.673Z,4812
2016-11-04T12:00:54.547Z,5744
2016-11-04T12:01:20.273Z,5596
2016-11-04T12:01:45.750Z,5664
2016-11-04T12:02:11.296Z,6412
2016-11-04T12:02:36.859Z,6164
2016-11-04T12:03:02.416Z,6568
2016-11-04T12:03:27.995Z,6888
2016-11-04T12:03:53.652Z,7356
2016-11-04T12:04:19.241Z,7484
2016-11-04T12:04:44.789Z,7568
2016-11-04T12:05:10.453Z,7424
2016-11-04T12:05:36.108Z,7712
2016-11-04T12:06:01.669Z,8132
2016-11-04T12:07:09.995Z,7376
2016-11-04T12:07:35.687Z,7440
2016-11-04T12:08:01.686Z,7384
2016-11-04T12:08:26.973Z,7192
2016-11-04T12:08:52.550Z,6852
2016-11-04T12:09:18.117Z,6296
2016-11-04T12:09:43.772Z,5856
2016-11-04T12:10:09.342Z,5480
2016-11-04T12:10:34.906Z,5220
2016-11-04T12:11:00.587Z,4992
2016-11-04T12:12:03.854Z,5064
2016-11-04T12:12:29.434Z,5184
2016-11-04T12:12:55.014Z,5440
2016-11-04T12:13:20.614Z,5620
2016-11-04T12:13:46.200Z,5748
2016-11-04T12:14:11.741Z,5892
2016-11-04T12:14:37.365Z,5996
2016-11-04T12:15:02.976Z,6028
2016-11-04T12:15:28.523Z,6016
2016-11-04T12:15:54.069Z,5936
2016-11-04T12:16:19.674Z,5844
2016-11-04T12:16:45.235Z,5684
2016-11-04T12:17:10.783Z,5484
2016-11-04T12:17:36.346Z,5220
2016-11-04T12:18:01.889Z,4936
2016-11-04T12:18:27.456Z,4712
2016-11-04T12:18:53.016Z,4508
2016-11-04T12:19:18.581Z,4332
2016-11-04T12:19:44.141Z,4152
2016-11-04T12:20:09.686Z,3944
2016-11-04T12:20:35.250Z,3800
2016-11-04T12:21:00.822Z,3632
2016-11-04T12:21:26.380Z,3476
2016-11-04T12:21:51.924Z,3328
2016-11-04T12:22:17.458Z,3200
2016-11-04T12:22:43.010Z,3080
2016-11-04T12:23:08.576Z,2972
2016-11-04T12:23:34.279Z,2876
2016-11-04T12:23:59.839Z,2776
2016-11-04T12:25:13.345Z,2484
2016-11-04T12:25:38.880Z,2400
2016-11-04T12:26:04.507Z,2348
2016-11-04T12:27:12.795Z,2300
2016-11-04T12:27:38.357Z,2292
2016-11-04T12:29:45.493Z,2324
2016-11-04T12:30:11.053Z,2356
2016-11-04T12:30:36.607Z,2400
2016-11-04T12:31:02.144Z,2448
2016-11-04T12:32:05.387Z,2552
2016-11-04T12:32:30.952Z,2568
2016-11-04T12:32:56.513Z,2560
2016-11-04T12:33:22.112Z,2536
2016-11-04T12:33:47.690Z,2504
2016-11-04T12:34:13.335Z,2464
2016-11-04T12:34:38.911Z,2436
2016-11-04T12:35:04.515Z,2416
2016-11-04T12:35:30.148Z,2408
2016-11-04T12:35:55.834Z,2388
2016-11-04T12:36:21.423Z,2364
2016-11-04T12:36:47.072Z,2340
2016-11-04T12:37:12.701Z,2300
2016-11-04T12:37:38.369Z,2268
2016-11-04T12:38:03.931Z,2240
2016-11-04T12:38:29.600Z,2200
2016-11-04T12:38:55.208Z,2164
2016-11-04T12:39:20.800Z,2144
2016-11-04T12:39:46.393Z,2128
2016-11-04T12:40:11.999Z,2120
2016-11-04T12:40:37.608Z,2108
2016-11-04T12:41:03.181Z,2088
2016-11-04T12:41:28.778Z,2064
2016-11-04T12:41:54.345Z,2044
2016-11-04T12:42:19.897Z,2012
2016-11-04T12:42:45.491Z,1984
2016-11-04T12:43:11.069Z,1952
2016-11-04T12:43:36.604Z,1924
2016-11-04T12:44:02.421Z,1896
2016-11-04T12:44:27.976Z,1868
2016-11-04T12:44:53.593Z,1848
2016-11-04T12:45:19.177Z,1836
2016-11-04T12:45:44.741Z,1820
2016-11-04T12:46:10.319Z,1804
2016-11-04T12:46:35.858Z,1800
2016-11-04T12:47:01.466Z,1800
2016-11-04T12:47:27.010Z,1796
2016-11-04T12:47:52.603Z,1792
2016-11-04T12:48:18.153Z,1780
2016-11-04T12:48:43.740Z,1764
2016-11-04T12:49:09.329Z,1728
2016-11-04T12:49:35.009Z,1696
2016-11-04T12:50:00.626Z,1664
2016-11-04T12:50:26.195Z,1640
2016-11-04T12:50:51.761Z,1624
2016-11-04T12:51:17.408Z,1620
2016-11-04T12:51:42.962Z,1644
2016-11-04T12:52:08.522Z,1676
2016-11-04T12:52:34.172Z,1728
2016-11-04T12:52:59.721Z,1788
2016-11-04T12:53:25.374Z,1848
2016-11-04T12:53:51.130Z,1916
2016-11-04T12:54:16.867Z,1964
2016-11-04T12:54:42.437Z,2004
2016-11-04T12:55:07.991Z,2036
2016-11-04T12:55:33.571Z,2064
2016-11-04T12:55:59.136Z,2084
2016-11-04T12:56:24.726Z,2104
2016-11-04T12:56:50.261Z,2108
2016-11-04T12:57:15.816Z,2084
2016-11-04T12:57:41.358Z,2048
2016-11-04T12:58:07.009Z,2000
2016-11-04T12:58:33.327Z,1940
2016-11-04T12:58:58.872Z,1880
2016-11-04T12:59:24.598Z,1836
2016-11-04T12:59:50.224Z,1816
2016-11-04T13:00:15.786Z,1812
2016-11-04T13:00:41.351Z,1792
2016-11-04T13:01:06.981Z,1784
2016-11-04T13:01:32.550Z,1768
2016-11-04T13:01:58.117Z,1756
2016-11-04T13:02:23.703Z,1756
2016-11-04T13:02:49.237Z,1752
2016-11-04T13:03:14.784Z,1736
2016-11-04T13:03:40.364Z,1708
2016-11-04T13:04:05.951Z,1688
2016-11-04T13:04:31.500Z,1668
2016-11-04T13:04:57.154Z,1648
2016-11-04T13:05:22.725Z,1648
2016-11-04T13:05:48.263Z,1652
2016-11-04T13:06:13.832Z,1660
2016-11-04T13:06:39.408Z,1680
2016-11-04T13:07:04.951Z,1708
2016-11-04T13:07:30.538Z,1744
2016-11-04T13:07:56.111Z,1780
2016-11-04T13:08:21.707Z,1808
2016-11-04T13:09:40.664Z,1824
2016-11-04T13:10:06.299Z,1816
2016-11-04T13:10:31.841Z,1808
2016-11-04T13:10:57.484Z,1800
2016-11-04T13:11:23.010Z,1792
2016-11-04T13:11:48.578Z,1780
2016-11-04T13:12:14.149Z,1768
2016-11-04T13:12:39.726Z,1752
2016-11-04T13:13:05.235Z,1748
2016-11-04T13:13:30.782Z,1748
2016-11-04T13:13:57.178Z,1760
2016-11-04T13:14:22.842Z,1768
2016-11-04T13:14:48.416Z,1760
2016-11-04T13:15:13.917Z,1744
2016-11-04T13:15:39.543Z,1708
2016-11-04T13:16:05.120Z,1648
2016-11-04T13:16:30.688Z,1588
2016-11-04T13:16:56.230Z,1524
2016-11-04T13:17:21.793Z,1472
2016-11-04T13:17:47.553Z,1428
2016-11-04T13:18:13.184Z,1396
2016-11-04T13:18:38.740Z,1380
2016-11-04T13:19:04.295Z,1396
2016-11-04T13:19:29.867Z,1440
2016-11-04T13:19:55.425Z,1508
2016-11-04T13:20:20.993Z,1608
2016-11-04T13:20:46.604Z,1720
2016-11-04T13:21:12.176Z,1836
2016-11-04T13:21:37.742Z,1928
2016-11-04T13:22:03.543Z,2000
2016-11-04T13:22:29.155Z,2048
2016-11-04T13:22:54.730Z,2064
2016-11-04T13:23:20.349Z,2056
2016-11-04T13:23:45.931Z,2020
2016-11-04T13:24:11.635Z,1968
2016-11-04T13:24:37.297Z,1904
2016-11-04T13:25:02.843Z,1852
2016-11-04T13:25:28.420Z,1808
2016-11-04T13:25:54.054Z,1784
2016-11-04T13:26:19.616Z,1760
2016-11-04T13:26:45.183Z,1732
2016-11-04T13:27:10.869Z,1692
2016-11-04T13:28:14.132Z,1624
2016-11-04T13:28:39.814Z,1616
2016-11-04T13:29:05.357Z,1612
2016-11-04T13:29:30.925Z,1608
2016-11-04T13:29:56.650Z,1608
2016-11-04T13:30:22.233Z,1612
2016-11-04T13:30:47.779Z,1620
2016-11-04T13:31:13.337Z,1604
2016-11-04T13:31:38.977Z,1580
2016-11-04T13:32:04.503Z,1556
2016-11-04T13:32:30.058Z,1512
2016-11-04T13:33:44.356Z,1372
2016-11-04T13:34:09.942Z,1316
2016-11-04T13:34:35.497Z,1276
2016-11-04T13:35:01.061Z,1256
2016-11-04T13:35:26.601Z,1256
2016-11-04T13:35:52.163Z,1256
2016-11-04T13:36:17.761Z,1272
2016-11-04T13:36:43.326Z,1300
2016-11-04T13:37:08.895Z,1352
2016-11-04T13:37:34.593Z,1408
2016-11-04T13:38:00.138Z,1456
2016-11-04T13:38:25.711Z,1508
2016-11-04T13:38:51.375Z,1552
2016-11-04T13:39:16.956Z,1564
2016-11-04T13:39:42.503Z,1548
2016-11-04T13:40:08.071Z,1496
2016-11-04T13:40:33.626Z,1424
2016-11-04T13:40:59.190Z,1352
2016-11-04T13:41:24.772Z,1284
2016-11-04T13:41:50.343Z,1232
2016-11-04T13:42:15.900Z,1192
2016-11-04T13:42:41.461Z,1168
2016-11-04T13:43:07.108Z,1148
2016-11-04T13:43:32.651Z,1132
2016-11-04T13:43:58.402Z,1124
2016-11-04T13:44:23.950Z,1128
2016-11-04T13:44:49.620Z,1120
2016-11-04T13:45:15.175Z,1120
2016-11-04T13:45:40.766Z,1140
2016-11-04T13:46:06.362Z,1172
2016-11-04T13:46:31.905Z,1228
2016-11-04T13:46:57.537Z,1288
2016-11-04T13:47:23.133Z,1360
2016-11-04T13:47:48.697Z,1420
2016-11-04T13:48:14.321Z,1464
2016-11-04T13:48:39.975Z,1468
2016-11-04T13:49:05.555Z,1424
2016-11-04T13:49:31.118Z,1348
2016-11-04T13:49:56.682Z,1264
2016-11-04T13:50:22.233Z,1188
2016-11-04T13:50:47.799Z,1116
2016-11-04T13:51:13.365Z,1036
2016-11-04T13:51:38.911Z,980
2016-11-04T13:52:04.449Z,940
2016-11-04T13:52:29.987Z,928
2016-11-04T13:52:55.591Z,944
2016-11-04T13:53:21.313Z,968
2016-11-04T13:53:46.952Z,988
2016-11-04T13:54:12.495Z,996
2016-11-04T13:54:38.713Z,988
2016-11-04T13:55:04.286Z,972
2016-11-04T13:55:29.834Z,960
2016-11-04T13:55:55.439Z,952
2016-11-04T13:56:20.996Z,956
2016-11-04T13:56:46.632Z,960
2016-11-04T13:57:12.100Z,960
2016-11-04T13:57:37.690Z,956
2016-11-04T13:58:03.241Z,956
2016-11-04T13:58:28.807Z,964
2016-11-04T13:58:54.385Z,972
2016-11-04T13:59:19.941Z,984
2016-11-04T13:59:45.583Z,996
2016-11-04T14:00:11.169Z,1004
2016-11-04T14:00:36.723Z,992
2016-11-04T14:01:02.391Z,968
2016-11-04T14:01:27.975Z,932
2016-11-04T14:01:53.524Z,892
2016-11-04T14:02:19.081Z,852
2016-11-04T14:02:44.646Z,808
2016-11-04T14:03:10.234Z,764
2016-11-04T14:03:35.813Z,724
2016-11-04T14:04:01.387Z,688
2016-11-04T14:04:26.993Z,664
2016-11-04T14:04:52.563Z,640
2016-11-04T14:05:18.124Z,620
2016-11-04T14:05:43.674Z,600
2016-11-04T14:06:09.268Z,576
2016-11-04T14:06:34.797Z,556
2016-11-04T14:07:00.351Z,536
2016-11-04T14:07:25.953Z,516
2016-11-04T14:07:51.523Z,500
2016-11-04T14:08:17.098Z,492
2016-11-04T14:08:42.655Z,488
2016-11-04T14:09:08.198Z,492
2016-11-04T14:09:33.754Z,496
2016-11-04T14:09:59.356Z,500
2016-11-04T14:10:24.919Z,508
2016-11-04T14:10:50.521Z,516
2016-11-04T14:11:16.132Z,524
2016-11-04T14:11:41.701Z,536
2016-11-04T14:12:07.262Z,544
2016-11-04T14:12:32.815Z,552
2016-11-04T14:12:58.380Z,568
2016-11-04T14:13:23.937Z,580
2016-11-04T14:13:49.513Z,596
2016-11-04T14:14:15.078Z,608
2016-11-04T14:14:40.707Z,620
2016-11-04T14:15:06.297Z,624
2016-11-04T14:15:31.870Z,628
2016-11-04T14:15:58.012Z,624
2016-11-04T14:16:23.584Z,612
2016-11-04T14:16:49.144Z,608
2016-11-04T14:17:14.837Z,604
2016-11-04T14:17:40.414Z,596
2016-11-04T14:18:05.992Z,580
2016-11-04T14:18:31.567Z,568
2016-11-04T14:18:57.142Z,548
2016-11-04T14:19:22.713Z,524
2016-11-04T14:19:48.262Z,492
2016-11-04T14:20:13.796Z,460
2016-11-04T14:20:39.359Z,436
2016-11-04T14:21:05.057Z,416
2016-11-04T14:21:30.779Z,404
2016-11-04T14:21:56.336Z,392
2016-11-04T14:22:21.883Z,388
2016-11-04T14:22:47.519Z,384
2016-11-04T14:23:13.191Z,380
2016-11-04T14:23:38.759Z,380
2016-11-04T14:24:04.335Z,380
2016-11-04T14:24:30.005Z,380
2016-11-04T14:24:55.542Z,380
2016-11-04T14:25:21.096Z,380
2016-11-04T14:25:46.683Z,384
2016-11-04T14:26:12.348Z,392
2016-11-04T14:26:37.910Z,400
2016-11-04T14:27:03.497Z,408
2016-11-04T14:27:29.151Z,420
2016-11-04T14:27:54.732Z,424
2016-11-04T14:28:20.299Z,428
2016-11-04T14:28:46.009Z,436
2016-11-04T14:29:11.553Z,444
2016-11-04T14:29:37.097Z,456
2016-11-04T14:30:02.686Z,468
2016-11-04T14:30:28.373Z,480
2016-11-04T14:30:53.906Z,488
2016-11-04T14:31:19.482Z,492
2016-11-04T14:31:45.020Z,488
2016-11-04T14:32:10.596Z,484
2016-11-04T14:32:36.261Z,476
2016-11-04T14:33:01.787Z,464
2016-11-04T14:33:27.420Z,452
2016-11-04T14:33:53.027Z,436
2016-11-04T14:34:18.588Z,416
2016-11-04T14:34:44.581Z,396
2016-11-04T14:35:09.796Z,380
2016-11-04T14:35:35.367Z,364
2016-11-04T14:36:00.941Z,352
2016-11-04T14:36:26.607Z,332
2016-11-04T14:36:52.187Z,320
2016-11-04T14:37:17.759Z,312
2016-11-04T14:37:43.329Z,308
2016-11-04T14:38:08.991Z,308
2016-11-04T14:38:34.590Z,308
2016-11-04T14:39:00.153Z,308
2016-11-04T14:39:25.889Z,308
2016-11-04T14:39:51.432Z,300
2016-11-04T14:40:16.987Z,300
2016-11-04T14:40:42.556Z,296
2016-11-04T14:41:08.140Z,292
2016-11-04T14:41:33.753Z,296
2016-11-04T14:41:59.418Z,296
2016-11-04T14:42:24.973Z,296
2016-11-04T14:42:50.523Z,304
2016-11-04T14:43:16.073Z,304
2016-11-04T14:43:41.674Z,308
2016-11-04T14:44:07.243Z,320
2016-11-04T14:44:32.854Z,328
2016-11-04T14:44:58.421Z,336
2016-11-04T14:45:23.975Z,348
2016-11-04T14:45:49.602Z,356
2016-11-04T14:46:15.227Z,368
2016-11-04T14:46:40.778Z,380
2016-11-04T14:47:06.399Z,392
2016-11-04T14:47:31.982Z,408
2016-11-04T14:47:57.529Z,420
2016-11-04T14:48:23.100Z,428
2016-11-04T14:48:48.771Z,436
2016-11-04T14:49:14.342Z,444
2016-11-04T14:49:39.888Z,444
2016-11-04T14:50:05.452Z,452
2016-11-04T14:50:31.020Z,452
2016-11-04T14:50:56.588Z,448
2016-11-04T14:51:22.158Z,440
2016-11-04T14:51:47.783Z,432
2016-11-04T14:52:13.326Z,420
2016-11-04T14:52:38.906Z,408
2016-11-04T14:53:04.476Z,396
2016-11-04T14:53:30.050Z,384
2016-11-04T14:53:55.604Z,372
2016-11-04T14:54:21.210Z,360
2016-11-04T14:54:46.768Z,356
2016-11-04T14:55:12.328Z,356
2016-11-04T14:55:37.881Z,348
2016-11-04T14:56:03.508Z,344
2016-11-04T14:56:29.138Z,336
2016-11-04T14:56:54.682Z,328
2016-11-04T14:57:20.245Z,316
2016-11-04T14:57:45.797Z,304
2016-11-04T14:58:11.355Z,296
2016-11-04T14:58:36.893Z,284
2016-11-04T14:59:02.470Z,288
2016-11-04T14:59:28.064Z,284
2016-11-04T14:59:53.632Z,284
2016-11-04T15:00:19.190Z,284
2016-11-04T15:00:44.754Z,280
2016-11-04T15:01:10.300Z,280
2016-11-04T15:01:35.889Z,284
2016-11-04T15:02:01.456Z,284
2016-11-04T15:02:27.102Z,284
2016-11-04T15:02:52.678Z,280
2016-11-04T15:03:18.233Z,280
2016-11-04T15:03:43.895Z,280
2016-11-04T15:04:09.461Z,284
2016-11-04T15:04:35.049Z,288
2016-11-04T15:05:00.594Z,296
2016-11-04T15:05:26.121Z,300
2016-11-04T15:05:51.705Z,308
2016-11-04T15:06:17.264Z,312
2016-11-04T15:06:42.838Z,320
2016-11-04T15:07:08.473Z,328
2016-11-04T15:07:34.129Z,340
2016-11-04T15:07:59.697Z,352
2016-11-04T15:08:25.251Z,360
2016-11-04T15:08:50.888Z,364
2016-11-04T15:09:16.441Z,368
2016-11-04T15:09:41.999Z,372
2016-11-04T15:10:07.532Z,380
2016-11-04T15:10:33.096Z,384
2016-11-04T15:10:58.634Z,388
2016-11-04T15:11:24.275Z,392
2016-11-04T15:11:49.867Z,392
2016-11-04T15:12:15.447Z,396
2016-11-04T15:12:41.010Z,400
2016-11-04T15:13:06.543Z,404
2016-11-04T15:13:32.110Z,400
2016-11-04T15:13:57.692Z,396
2016-11-04T15:14:23.337Z,388
2016-11-04T15:14:48.898Z,380
2016-11-04T15:15:14.467Z,376
2016-11-04T15:15:40.053Z,368
2016-11-04T15:16:05.647Z,356
2016-11-04T15:16:31.231Z,352
2016-11-04T15:16:56.800Z,352
2016-11-04T15:17:22.418Z,348
2016-11-04T15:17:48.039Z,348
2016-11-04T15:18:13.607Z,348
2016-11-04T15:18:39.176Z,344
2016-11-04T15:19:04.728Z,348
2016-11-04T15:19:30.271Z,344
2016-11-04T15:19:55.862Z,340
2016-11-04T15:20:21.407Z,340
2016-11-04T15:20:46.964Z,336
2016-11-04T15:21:12.541Z,332
2016-11-04T15:21:38.086Z,328
2016-11-04T15:22:03.669Z,324
2016-11-04T15:22:29.263Z,316
2016-11-04T15:22:54.822Z,312
2016-11-04T15:23:20.427Z,308
2016-11-04T15:23:46.006Z,304
2016-11-04T15:24:11.583Z,300
2016-11-04T15:24:37.230Z,296
2016-11-04T15:25:02.733Z,292
2016-11-04T15:25:28.286Z,292
2016-11-04T15:25:53.858Z,292
2016-11-04T15:26:19.417Z,292
2016-11-04T15:26:44.993Z,288
2016-11-04T15:27:10.579Z,288
2016-11-04T15:27:36.176Z,284
2016-11-04T15:28:01.756Z,280
2016-11-04T15:28:27.321Z,280
2016-11-04T15:28:52.883Z,276
2016-11-04T15:29:18.450Z,272
2016-11-04T15:29:43.988Z,268
2016-11-04T15:30:09.553Z,264
2016-11-04T15:30:35.122Z,264
2016-11-04T15:31:00.673Z,256
2016-11-04T15:31:26.240Z,256
2016-11-04T15:31:51.818Z,248
2016-11-04T15:32:17.382Z,240
2016-11-04T15:32:43.017Z,232
2016-11-04T15:33:08.570Z,228
2016-11-04T15:33:34.107Z,224
2016-11-04T15:33:59.657Z,220
2016-11-04T15:34:25.215Z,216
2016-11-04T15:34:50.822Z,212
2016-11-04T15:35:16.374Z,204
2016-11-04T15:35:41.929Z,200
2016-11-04T15:36:07.511Z,196
2016-11-04T15:36:33.070Z,196
2016-11-04T15:36:58.647Z,188
2016-11-04T15:37:24.200Z,188
2016-11-04T15:37:49.770Z,184
2016-11-04T15:38:15.370Z,180
2016-11-04T15:38:40.993Z,172
2016-11-04T15:39:06.554Z,172
2016-11-04T15:39:32.114Z,168
2016-11-04T15:39:57.680Z,160
2016-11-04T15:40:23.387Z,156
2016-11-04T15:40:48.970Z,152
2016-11-04T15:41:14.531Z,144
2016-11-04T15:41:40.092Z,144
2016-11-04T15:42:05.657Z,140
2016-11-04T15:42:31.225Z,136
2016-11-04T15:42:56.764Z,128
2016-11-04T15:43:22.347Z,128
2016-11-04T15:43:47.898Z,124
2016-11-04T15:44:13.468Z,120
2016-11-04T15:44:39.024Z,116
2016-11-04T15:45:04.611Z,112
2016-11-04T15:45:30.154Z,112
2016-11-04T15:45:55.778Z,108
2016-11-04T15:46:21.402Z,104
2016-11-04T15:46:46.952Z,104
2016-11-04T15:47:12.528Z,100
2016-11-04T15:47:38.102Z,92
2016-11-04T15:48:03.669Z,92
2016-11-04T15:48:29.369Z,88
2016-11-04T15:48:54.965Z,88
2016-11-04T15:49:20.525Z,84
2016-11-04T15:49:46.081Z,80
2016-11-04T15:50:11.785Z,80
2016-11-04T15:50:37.352Z,76
2016-11-04T15:51:02.931Z,72
2016-11-04T15:51:28.511Z,68
2016-11-04T15:51:54.151Z,68
2016-11-04T15:52:19.697Z,68
2016-11-04T15:52:45.237Z,60
2016-11-04T15:53:10.793Z,60
2016-11-04T15:53:36.381Z,60
2016-11-04T15:54:01.951Z,56
2016-11-04T15:54:27.499Z,52
2016-11-04T15:54:53.066Z,52
2016-11-04T15:55:18.770Z,48
2016-11-04T15:55:44.322Z,48
2016-11-04T15:56:09.876Z,48
2016-11-04T15:56:35.435Z,44
2016-11-04T15:57:00.988Z,44
2016-11-04T15:57:26.587Z,40
2016-11-04T15:57:52.152Z,40
2016-11-04T15:58:17.716Z,36
2016-11-04T15:58:43.266Z,32
2016-11-04T15:59:08.986Z,32
2016-11-04T15:59:34.515Z,32
2016-11-04T16:00:00.059Z,32
2016-11-04T16:00:25.718Z,28
2016-11-04T16:00:51.342Z,28
2016-11-04T16:01:16.912Z,24
2016-11-04T16:01:42.604Z,24
2016-11-04T16:02:08.170Z,20
2016-11-04T16:02:33.751Z,24
2016-11-04T16:02:59.355Z,20
2016-11-04T16:03:24.941Z,20
2016-11-04T16:03:50.519Z,16
2016-11-04T16:04:16.071Z,20
2016-11-04T16:04:41.748Z,16
2016-11-04T16:05:07.311Z,16
2016-11-04T16:05:32.885Z,16
2016-11-04T16:05:58.545Z,12
2016-11-04T16:06:24.134Z,12
2016-11-04T16:06:49.684Z,12
2016-11-04T16:07:15.247Z,8
2016-11-04T16:07:40.847Z,12
2016-11-04T16:08:06.506Z,8
2016-11-04T16:08:32.064Z,8
2016-11-04T16:08:57.665Z,8
2016-11-04T16:09:23.230Z,8
2016-11-04T16:09:48.831Z,8
2016-11-04T16:10:14.400Z,8
2016-11-04T16:10:39.968Z,8
2016-11-04T16:11:05.539Z,4
2016-11-04T16:11:31.128Z,4
2016-11-04T16:11:56.707Z,4
2016-11-04T16:12:22.366Z,4
2016-11-04T16:12:47.975Z,4
2016-11-04T16:13:13.557Z,4
2016-11-04T16:13:39.172Z,4
2016-11-04T16:14:04.772Z,4
2016-11-04T16:14:30.354Z,0
2016-11-04T16:14:55.936Z,4
2016-11-04T16:15:21.499Z,4
2016-11-04T16:15:47.161Z,4
2016-11-04T16:16:12.834Z,4
2016-11-04T16:16:38.449Z,4
2016-11-04T16:17:04.036Z,0
2016-11-04T16:17:29.623Z,0
2016-11-04T16:17:55.208Z,0
2016-11-04T16:18:20.767Z,0
2016-11-04T16:18:46.325Z,0
2016-11-04T16:19:11.929Z,0
2016-11-04T16:19:37.571Z,0
2016-11-04T16:20:03.227Z,0
2016-11-04T16:20:28.767Z,0
2016-11-04T16:20:54.367Z,0
2016-11-04T16:21:19.967Z,0
2016-11-04T16:21:45.574Z,0
2016-11-04T16:22:11.173Z,0
2016-11-04T16:22:36.767Z,0
2016-11-04T16:23:02.353Z,0
2016-11-04T16:23:27.898Z,0
2016-11-04T16:23:53.449Z,0
2016-11-04T16:24:19.056Z,0
2016-11-04T16:24:44.621Z,0
2016-11-04T16:25:10.187Z,0
2016-11-04T16:25:35.778Z,0
2016-11-04T16:26:01.353Z,0
2016-11-04T16:26:26.916Z,0
2016-11-04T16:26:52.527Z,0
2016-11-04T16:27:18.078Z,0
2016-11-04T16:27:43.665Z,0
2016-11-04T16:28:09.289Z,0
2016-11-04T16:28:34.877Z,0
2016-11-04T16:29:00.550Z,0
2016-11-04T16:29:26.124Z,0
2016-11-04T16:29:51.689Z,0
2016-11-04T16:30:17.260Z,0
2016-11-04T16:30:42.968Z,0
2016-11-04T16:31:08.522Z,0
2016-11-04T16:31:34.089Z,0
2016-11-04T16:31:59.646Z,0
2016-11-04T16:32:25.230Z,0
2016-11-04T16:32:50.805Z,0
2016-11-04T16:33:16.358Z,0
2016-11-04T16:33:41.899Z,0